sensor_id;sensor_type;location;lat;lon;timestamp;temperature;humidity
2757;DHT22;1386;50.862;6.494;2022-09-03T00:02:04;18.30;67.10
2757;DHT22;1386;50.862;6.494;2022-09-03T00:04:40;18.30;66.90
2757;DHT22;1386;50.862;6.494;2022-09-03T00:07:14;18.30;66.80
2757;DHT22;1386;50.862;6.494;2022-09-03T00:09:48;18.20;67.30
2757;DHT22;1386;50.862;6.494;2022-09-03T00:12:20;18.30;67.20
2757;DHT22;1386;50.862;6.494;2022-09-03T00:14:50;18.20;67.40
2757;DHT22;1386;50.862;6.494;2022-09-03T00:17:21;18.20;66.90
2757;DHT22;1386;50.862;6.494;2022-09-03T00:19:54;18.20;67.60
2757;DHT22;1386;50.862;6.494;2022-09-03T00:22:24;18.20;67.30
2757;DHT22;1386;50.862;6.494;2022-09-03T00:24:56;18.10;67.30
2757;DHT22;1386;50.862;6.494;2022-09-03T00:27:26;18.10;67.80
2757;DHT22;1386;50.862;6.494;2022-09-03T00:29:57;18.00;67.50
2757;DHT22;1386;50.862;6.494;2022-09-03T00:32:32;18.00;67.70
2757;DHT22;1386;50.862;6.494;2022-09-03T00:35:03;18.00;67.80
2757;DHT22;1386;50.862;6.494;2022-09-03T00:37:33;18.00;68.00
2757;DHT22;1386;50.862;6.494;2022-09-03T00:40:02;17.90;67.70
2757;DHT22;1386;50.862;6.494;2022-09-03T00:42:43;17.90;68.20
2757;DHT22;1386;50.862;6.494;2022-09-03T00:45:22;17.80;68.00
2757;DHT22;1386;50.862;6.494;2022-09-03T00:48:04;17.80;68.10
2757;DHT22;1386;50.862;6.494;2022-09-03T00:50:41;17.80;67.70
2757;DHT22;1386;50.862;6.494;2022-09-03T00:53:14;17.80;68.20
2757;DHT22;1386;50.862;6.494;2022-09-03T00:55:48;17.70;68.80
2757;DHT22;1386;50.862;6.494;2022-09-03T00:58:48;17.70;68.40
2757;DHT22;1386;50.862;6.494;2022-09-03T01:01:21;17.70;68.40
2757;DHT22;1386;50.862;6.494;2022-09-03T01:03:58;17.70;68.60
2757;DHT22;1386;50.862;6.494;2022-09-03T01:06:39;17.70;68.70
2757;DHT22;1386;50.862;6.494;2022-09-03T01:09:20;17.70;68.80
2757;DHT22;1386;50.862;6.494;2022-09-03T01:11:58;17.70;68.60
2757;DHT22;1386;50.862;6.494;2022-09-03T01:14:37;17.60;68.50
2757;DHT22;1386;50.862;6.494;2022-09-03T01:17:12;17.60;68.50
2757;DHT22;1386;50.862;6.494;2022-09-03T01:20:08;17.60;68.50
2757;DHT22;1386;50.862;6.494;2022-09-03T01:22:59;17.60;68.60
2757;DHT22;1386;50.862;6.494;2022-09-03T01:25:45;17.60;68.90
2757;DHT22;1386;50.862;6.494;2022-09-03T01:28:29;17.60;68.90
2757;DHT22;1386;50.862;6.494;2022-09-03T01:31:04;17.60;69.10
2757;DHT22;1386;50.862;6.494;2022-09-03T01:33:38;17.50;69.10
2757;DHT22;1386;50.862;6.494;2022-09-03T01:36:11;17.50;69.20
2757;DHT22;1386;50.862;6.494;2022-09-03T01:38:44;17.50;70.00
2757;DHT22;1386;50.862;6.494;2022-09-03T01:41:19;17.40;70.00
2757;DHT22;1386;50.862;6.494;2022-09-03T01:44:11;17.40;70.00
2757;DHT22;1386;50.862;6.494;2022-09-03T01:46:42;17.40;70.40
2757;DHT22;1386;50.862;6.494;2022-09-03T01:49:16;17.30;70.90
2757;DHT22;1386;50.862;6.494;2022-09-03T01:51:50;17.30;70.60
2757;DHT22;1386;50.862;6.494;2022-09-03T01:57:22;17.20;70.30
2757;DHT22;1386;50.862;6.494;2022-09-03T01:59:57;17.20;70.90
2757;DHT22;1386;50.862;6.494;2022-09-03T02:02:26;17.10;71.80
2757;DHT22;1386;50.862;6.494;2022-09-03T02:04:57;17.10;71.00
2757;DHT22;1386;50.862;6.494;2022-09-03T02:07:27;17.10;71.10
2757;DHT22;1386;50.862;6.494;2022-09-03T02:09:58;17.10;71.60
2757;DHT22;1386;50.862;6.494;2022-09-03T02:12:25;17.00;71.90
2757;DHT22;1386;50.862;6.494;2022-09-03T02:14:54;17.00;71.90
2757;DHT22;1386;50.862;6.494;2022-09-03T02:17:21;17.00;72.00
2757;DHT22;1386;50.862;6.494;2022-09-03T02:19:47;16.90;71.90
2757;DHT22;1386;50.862;6.494;2022-09-03T02:22:14;16.90;72.00
2757;DHT22;1386;50.862;6.494;2022-09-03T02:24:42;16.90;72.30
2757;DHT22;1386;50.862;6.494;2022-09-03T02:27:09;16.90;72.80
2757;DHT22;1386;50.862;6.494;2022-09-03T02:29:36;16.90;73.60
2757;DHT22;1386;50.862;6.494;2022-09-03T02:32:04;16.90;72.70
2757;DHT22;1386;50.862;6.494;2022-09-03T02:34:31;16.90;74.10
2757;DHT22;1386;50.862;6.494;2022-09-03T02:36:58;16.80;74.50
2757;DHT22;1386;50.862;6.494;2022-09-03T02:39:25;16.80;75.00
2757;DHT22;1386;50.862;6.494;2022-09-03T02:41:54;16.70;75.00
2757;DHT22;1386;50.862;6.494;2022-09-03T02:44:26;16.70;75.30
2757;DHT22;1386;50.862;6.494;2022-09-03T02:46:57;16.60;75.40
2757;DHT22;1386;50.862;6.494;2022-09-03T02:49:26;16.60;75.70
2757;DHT22;1386;50.862;6.494;2022-09-03T02:51:57;16.60;76.00
2757;DHT22;1386;50.862;6.494;2022-09-03T02:54:25;16.60;76.30
2757;DHT22;1386;50.862;6.494;2022-09-03T02:56:52;16.50;76.50
2757;DHT22;1386;50.862;6.494;2022-09-03T02:59:19;16.50;77.00
2757;DHT22;1386;50.862;6.494;2022-09-03T03:01:47;16.50;77.00
2757;DHT22;1386;50.862;6.494;2022-09-03T03:04:14;16.50;77.30
2757;DHT22;1386;50.862;6.494;2022-09-03T03:06:43;16.50;77.30
2757;DHT22;1386;50.862;6.494;2022-09-03T03:09:09;16.50;77.40
2757;DHT22;1386;50.862;6.494;2022-09-03T03:11:36;16.50;77.50
2757;DHT22;1386;50.862;6.494;2022-09-03T03:14:04;16.50;77.60
2757;DHT22;1386;50.862;6.494;2022-09-03T03:16:31;16.50;77.40
2757;DHT22;1386;50.862;6.494;2022-09-03T03:18:58;16.50;77.20
2757;DHT22;1386;50.862;6.494;2022-09-03T03:21:25;16.50;78.10
2757;DHT22;1386;50.862;6.494;2022-09-03T03:23:54;16.60;77.30
2757;DHT22;1386;50.862;6.494;2022-09-03T03:26:21;16.50;77.40
2757;DHT22;1386;50.862;6.494;2022-09-03T03:28:49;16.50;76.50
2757;DHT22;1386;50.862;6.494;2022-09-03T03:31:21;16.50;76.80
2757;DHT22;1386;50.862;6.494;2022-09-03T03:33:50;16.60;76.70
2757;DHT22;1386;50.862;6.494;2022-09-03T03:36:18;16.60;77.20
2757;DHT22;1386;50.862;6.494;2022-09-03T03:38:45;16.60;77.20
2757;DHT22;1386;50.862;6.494;2022-09-03T03:41:16;16.60;77.10
2757;DHT22;1386;50.862;6.494;2022-09-03T03:43:43;16.60;76.90
2757;DHT22;1386;50.862;6.494;2022-09-03T03:46:11;16.60;77.20
2757;DHT22;1386;50.862;6.494;2022-09-03T03:48:38;16.60;77.20
2757;DHT22;1386;50.862;6.494;2022-09-03T03:51:07;16.60;77.20
2757;DHT22;1386;50.862;6.494;2022-09-03T03:56:34;16.60;77.10
2757;DHT22;1386;50.862;6.494;2022-09-03T03:59:01;16.70;77.40
2757;DHT22;1386;50.862;6.494;2022-09-03T04:01:28;16.70;77.00
2757;DHT22;1386;50.862;6.494;2022-09-03T04:03:56;16.70;77.30
2757;DHT22;1386;50.862;6.494;2022-09-03T04:06:30;16.70;77.40
2757;DHT22;1386;50.862;6.494;2022-09-03T04:08:57;16.70;77.40
2757;DHT22;1386;50.862;6.494;2022-09-03T04:11:24;16.70;77.30
2757;DHT22;1386;50.862;6.494;2022-09-03T04:13:53;16.70;77.90
2757;DHT22;1386;50.862;6.494;2022-09-03T04:16:24;16.80;77.80
2757;DHT22;1386;50.862;6.494;2022-09-03T04:18:53;16.80;77.70
2757;DHT22;1386;50.862;6.494;2022-09-03T04:21:21;16.70;77.20
2757;DHT22;1386;50.862;6.494;2022-09-03T04:23:49;16.70;77.60
2757;DHT22;1386;50.862;6.494;2022-09-03T04:26:18;16.70;77.90
2757;DHT22;1386;50.862;6.494;2022-09-03T04:28:45;16.70;77.80
2757;DHT22;1386;50.862;6.494;2022-09-03T04:31:15;16.70;77.40
2757;DHT22;1386;50.862;6.494;2022-09-03T04:33:44;16.70;77.70
2757;DHT22;1386;50.862;6.494;2022-09-03T04:36:18;16.70;77.90
2757;DHT22;1386;50.862;6.494;2022-09-03T04:38:46;16.70;77.80
2757;DHT22;1386;50.862;6.494;2022-09-03T04:41:15;16.70;77.80
2757;DHT22;1386;50.862;6.494;2022-09-03T04:43:43;16.60;78.20
2757;DHT22;1386;50.862;6.494;2022-09-03T04:46:13;16.60;78.30
2757;DHT22;1386;50.862;6.494;2022-09-03T04:48:41;16.60;78.50
2757;DHT22;1386;50.862;6.494;2022-09-03T04:51:09;16.60;78.60
2757;DHT22;1386;50.862;6.494;2022-09-03T04:53:39;16.60;78.50
2757;DHT22;1386;50.862;6.494;2022-09-03T04:56:12;16.60;78.90
2757;DHT22;1386;50.862;6.494;2022-09-03T04:58:39;16.60;79.40
2757;DHT22;1386;50.862;6.494;2022-09-03T05:01:10;16.60;79.40
2757;DHT22;1386;50.862;6.494;2022-09-03T05:03:38;16.50;79.30
2757;DHT22;1386;50.862;6.494;2022-09-03T05:06:05;16.60;79.60
2757;DHT22;1386;50.862;6.494;2022-09-03T05:08:32;16.50;79.50
2757;DHT22;1386;50.862;6.494;2022-09-03T05:11:02;16.50;79.60
2757;DHT22;1386;50.862;6.494;2022-09-03T05:13:28;16.50;79.90
2757;DHT22;1386;50.862;6.494;2022-09-03T05:15:58;16.50;80.00
2757;DHT22;1386;50.862;6.494;2022-09-03T05:18:26;16.50;80.10
2757;DHT22;1386;50.862;6.494;2022-09-03T05:20:59;16.50;80.00
2757;DHT22;1386;50.862;6.494;2022-09-03T05:23:26;16.50;80.10
2757;DHT22;1386;50.862;6.494;2022-09-03T05:25:56;16.50;80.00
2757;DHT22;1386;50.862;6.494;2022-09-03T05:28:24;16.60;80.50
2757;DHT22;1386;50.862;6.494;2022-09-03T05:30:58;16.50;80.40
2757;DHT22;1386;50.862;6.494;2022-09-03T05:33:26;16.60;80.00
2757;DHT22;1386;50.862;6.494;2022-09-03T05:35:53;16.60;80.20
2757;DHT22;1386;50.862;6.494;2022-09-03T05:38:22;16.60;79.60
2757;DHT22;1386;50.862;6.494;2022-09-03T05:40:48;16.70;80.00
2757;DHT22;1386;50.862;6.494;2022-09-03T05:43:15;16.70;80.00
2757;DHT22;1386;50.862;6.494;2022-09-03T05:45:42;16.70;80.50
2757;DHT22;1386;50.862;6.494;2022-09-03T05:48:09;16.70;80.30
2757;DHT22;1386;50.862;6.494;2022-09-03T05:50:36;16.70;79.90
2757;DHT22;1386;50.862;6.494;2022-09-03T05:53:31;16.70;80.00
2757;DHT22;1386;50.862;6.494;2022-09-03T05:55:59;16.80;80.40
2757;DHT22;1386;50.862;6.494;2022-09-03T05:58:29;16.80;81.00
2757;DHT22;1386;50.862;6.494;2022-09-03T06:00:56;16.90;80.50
2757;DHT22;1386;50.862;6.494;2022-09-03T06:03:24;16.90;80.50
2757;DHT22;1386;50.862;6.494;2022-09-03T06:05:51;16.90;80.40
2757;DHT22;1386;50.862;6.494;2022-09-03T06:08:19;16.90;79.70
2757;DHT22;1386;50.862;6.494;2022-09-03T06:11:06;16.90;81.30
2757;DHT22;1386;50.862;6.494;2022-09-03T06:13:36;17.00;80.60
2757;DHT22;1386;50.862;6.494;2022-09-03T06:16:04;17.00;81.00
2757;DHT22;1386;50.862;6.494;2022-09-03T06:18:31;17.00;80.60
2757;DHT22;1386;50.862;6.494;2022-09-03T06:20:59;17.00;79.70
2757;DHT22;1386;50.862;6.494;2022-09-03T06:23:27;17.00;79.60
2757;DHT22;1386;50.862;6.494;2022-09-03T06:26:07;17.00;79.70
2757;DHT22;1386;50.862;6.494;2022-09-03T06:28:35;17.10;80.30
2757;DHT22;1386;50.862;6.494;2022-09-03T06:31:03;17.10;80.20
2757;DHT22;1386;50.862;6.494;2022-09-03T06:33:42;17.10;80.60
2757;DHT22;1386;50.862;6.494;2022-09-03T06:36:11;17.20;80.80
2757;DHT22;1386;50.862;6.494;2022-09-03T06:38:39;17.20;80.00
2757;DHT22;1386;50.862;6.494;2022-09-03T06:41:09;17.30;80.50
2757;DHT22;1386;50.862;6.494;2022-09-03T06:43:38;17.30;80.20
2757;DHT22;1386;50.862;6.494;2022-09-03T06:46:07;17.30;80.10
2757;DHT22;1386;50.862;6.494;2022-09-03T06:48:34;17.40;79.80
2757;DHT22;1386;50.862;6.494;2022-09-03T06:51:03;17.40;80.00
2757;DHT22;1386;50.862;6.494;2022-09-03T06:53:32;17.40;80.70
2757;DHT22;1386;50.862;6.494;2022-09-03T06:56:01;17.50;80.90
2757;DHT22;1386;50.862;6.494;2022-09-03T06:58:31;17.50;80.20
2757;DHT22;1386;50.862;6.494;2022-09-03T07:01:01;17.60;80.20
2757;DHT22;1386;50.862;6.494;2022-09-03T07:03:28;17.60;79.80
2757;DHT22;1386;50.862;6.494;2022-09-03T07:05:59;17.60;80.30
2757;DHT22;1386;50.862;6.494;2022-09-03T07:08:26;17.70;81.10
2757;DHT22;1386;50.862;6.494;2022-09-03T07:10:54;17.70;80.30
2757;DHT22;1386;50.862;6.494;2022-09-03T07:13:21;17.70;80.50
2757;DHT22;1386;50.862;6.494;2022-09-03T07:15:57;17.80;80.30
2757;DHT22;1386;50.862;6.494;2022-09-03T07:18:24;17.80;79.60
2757;DHT22;1386;50.862;6.494;2022-09-03T07:21:06;17.90;80.40
2757;DHT22;1386;50.862;6.494;2022-09-03T07:23:42;17.90;80.20
2757;DHT22;1386;50.862;6.494;2022-09-03T07:26:17;18.00;79.40
2757;DHT22;1386;50.862;6.494;2022-09-03T07:28:45;18.00;79.20
2757;DHT22;1386;50.862;6.494;2022-09-03T07:31:16;18.00;78.90
2757;DHT22;1386;50.862;6.494;2022-09-03T07:33:44;18.10;79.00
2757;DHT22;1386;50.862;6.494;2022-09-03T07:36:13;18.10;78.80
2757;DHT22;1386;50.862;6.494;2022-09-03T07:38:40;18.10;78.70
2757;DHT22;1386;50.862;6.494;2022-09-03T07:41:09;18.20;79.60
2757;DHT22;1386;50.862;6.494;2022-09-03T07:43:38;18.30;78.20
2757;DHT22;1386;50.862;6.494;2022-09-03T07:46:05;18.30;78.70
2757;DHT22;1386;50.862;6.494;2022-09-03T07:48:34;18.40;77.90
2757;DHT22;1386;50.862;6.494;2022-09-03T07:51:02;18.40;78.20
2757;DHT22;1386;50.862;6.494;2022-09-03T07:54:27;18.40;78.10
2757;DHT22;1386;50.862;6.494;2022-09-03T07:56:54;18.60;77.90
2757;DHT22;1386;50.862;6.494;2022-09-03T08:02:12;18.90;77.40
2757;DHT22;1386;50.862;6.494;2022-09-03T08:21:43;19.20;77.60
2757;DHT22;1386;50.862;6.494;2022-09-03T08:24:15;19.30;78.50
2757;DHT22;1386;50.862;6.494;2022-09-03T08:26:58;19.40;78.80
2757;DHT22;1386;50.862;6.494;2022-09-03T09:26:30;21.90;82.90
2757;DHT22;1386;50.862;6.494;2022-09-03T09:29:11;22.10;81.90
2757;DHT22;1386;50.862;6.494;2022-09-03T09:38:32;22.30;80.50
2757;DHT22;1386;50.862;6.494;2022-09-03T09:44:26;22.40;81.00
2757;DHT22;1386;50.862;6.494;2022-09-03T09:51:43;22.80;80.80
2757;DHT22;1386;50.862;6.494;2022-09-03T09:57:54;23.00;79.50
2757;DHT22;1386;50.862;6.494;2022-09-03T10:01:10;22.90;79.70
2757;DHT22;1386;50.862;6.494;2022-09-03T10:11:01;23.90;78.00
2757;DHT22;1386;50.862;6.494;2022-09-03T10:13:41;24.10;77.10
2757;DHT22;1386;50.862;6.494;2022-09-03T10:23:06;24.40;76.30
2757;DHT22;1386;50.862;6.494;2022-09-03T10:25:41;24.10;76.40
2757;DHT22;1386;50.862;6.494;2022-09-03T10:28:17;24.10;76.80
2757;DHT22;1386;50.862;6.494;2022-09-03T10:31:07;24.10;76.90
2757;DHT22;1386;50.862;6.494;2022-09-03T10:33:43;24.20;76.50
2757;DHT22;1386;50.862;6.494;2022-09-03T10:36:20;24.40;77.10
2757;DHT22;1386;50.862;6.494;2022-09-03T10:39:03;24.70;76.10
2757;DHT22;1386;50.862;6.494;2022-09-03T10:41:49;24.80;75.50
2757;DHT22;1386;50.862;6.494;2022-09-03T10:44:41;24.90;75.10
2757;DHT22;1386;50.862;6.494;2022-09-03T10:50:23;25.40;75.10
2757;DHT22;1386;50.862;6.494;2022-09-03T10:53:05;25.60;74.70
2757;DHT22;1386;50.862;6.494;2022-09-03T10:55:46;25.70;73.80
2757;DHT22;1386;50.862;6.494;2022-09-03T10:58:40;25.50;74.00
2757;DHT22;1386;50.862;6.494;2022-09-03T11:01:41;25.70;74.70
2757;DHT22;1386;50.862;6.494;2022-09-03T11:06:46;25.70;74.20
2757;DHT22;1386;50.862;6.494;2022-09-03T11:08:01;25.90;73.50
2757;DHT22;1386;50.862;6.494;2022-09-03T11:10:32;26.20;73.30
2757;DHT22;1386;50.862;6.494;2022-09-03T11:13:05;26.30;73.00
2757;DHT22;1386;50.862;6.494;2022-09-03T11:15:36;26.60;72.90
2757;DHT22;1386;50.862;6.494;2022-09-03T11:18:14;26.80;72.40
2757;DHT22;1386;50.862;6.494;2022-09-03T11:20:43;26.90;70.80
2757;DHT22;1386;50.862;6.494;2022-09-03T11:23:40;27.00;71.40
2757;DHT22;1386;50.862;6.494;2022-09-03T11:26:14;26.90;71.00
2757;DHT22;1386;50.862;6.494;2022-09-03T11:28:57;26.80;70.50
2757;DHT22;1386;50.862;6.494;2022-09-03T11:31:35;26.60;70.80
2757;DHT22;1386;50.862;6.494;2022-09-03T11:34:13;26.30;72.10
2757;DHT22;1386;50.862;6.494;2022-09-03T11:36:44;26.30;72.70
2757;DHT22;1386;50.862;6.494;2022-09-03T11:39:33;26.50;72.70
2757;DHT22;1386;50.862;6.494;2022-09-03T11:42:34;26.70;71.60
2757;DHT22;1386;50.862;6.494;2022-09-03T11:45:23;26.90;71.60
2757;DHT22;1386;50.862;6.494;2022-09-03T11:47:50;27.10;71.40
2757;DHT22;1386;50.862;6.494;2022-09-03T11:50:21;27.20;71.20
2757;DHT22;1386;50.862;6.494;2022-09-03T11:52:51;27.30;70.30
2757;DHT22;1386;50.862;6.494;2022-09-03T11:55:25;27.40;69.80
2757;DHT22;1386;50.862;6.494;2022-09-03T11:57:54;27.50;70.00
2757;DHT22;1386;50.862;6.494;2022-09-03T12:00:23;27.60;70.20
2757;DHT22;1386;50.862;6.494;2022-09-03T12:02:54;27.70;70.10
2757;DHT22;1386;50.862;6.494;2022-09-03T12:05:29;27.60;69.80
2757;DHT22;1386;50.862;6.494;2022-09-03T12:08:19;27.40;68.90
2757;DHT22;1386;50.862;6.494;2022-09-03T12:10:56;27.30;70.60
2757;DHT22;1386;50.862;6.494;2022-09-03T12:13:42;27.20;69.70
2757;DHT22;1386;50.862;6.494;2022-09-03T12:16:24;27.20;70.30
2757;DHT22;1386;50.862;6.494;2022-09-03T12:18:54;27.30;70.20
2757;DHT22;1386;50.862;6.494;2022-09-03T12:21:25;27.20;70.30
2757;DHT22;1386;50.862;6.494;2022-09-03T12:23:52;27.30;70.80
2757;DHT22;1386;50.862;6.494;2022-09-03T12:26:22;27.50;70.20
2757;DHT22;1386;50.862;6.494;2022-09-03T12:28:53;27.60;70.20
2757;DHT22;1386;50.862;6.494;2022-09-03T12:31:23;27.60;70.00
2757;DHT22;1386;50.862;6.494;2022-09-03T12:33:55;27.60;69.90
2757;DHT22;1386;50.862;6.494;2022-09-03T12:36:37;27.60;70.20
2757;DHT22;1386;50.862;6.494;2022-09-03T12:39:07;27.40;69.90
2757;DHT22;1386;50.862;6.494;2022-09-03T12:41:35;27.30;70.60
2757;DHT22;1386;50.862;6.494;2022-09-03T12:44:02;27.40;70.30
2757;DHT22;1386;50.862;6.494;2022-09-03T12:46:32;27.50;69.90
2757;DHT22;1386;50.862;6.494;2022-09-03T12:49:00;27.50;70.20
2757;DHT22;1386;50.862;6.494;2022-09-03T12:51:38;27.60;71.00
2757;DHT22;1386;50.862;6.494;2022-09-03T12:54:11;27.80;70.80
2757;DHT22;1386;50.862;6.494;2022-09-03T12:56:41;28.10;70.40
2757;DHT22;1386;50.862;6.494;2022-09-03T12:59:11;28.20;71.10
2757;DHT22;1386;50.862;6.494;2022-09-03T13:01:46;28.30;69.80
2757;DHT22;1386;50.862;6.494;2022-09-03T13:04:17;28.30;69.30
2757;DHT22;1386;50.862;6.494;2022-09-03T13:06:49;28.30;69.50
2757;DHT22;1386;50.862;6.494;2022-09-03T13:09:20;28.30;68.50
2757;DHT22;1386;50.862;6.494;2022-09-03T13:11:47;28.30;69.10
2757;DHT22;1386;50.862;6.494;2022-09-03T13:14:17;28.20;69.00
2757;DHT22;1386;50.862;6.494;2022-09-03T13:17:13;28.30;69.90
2757;DHT22;1386;50.862;6.494;2022-09-03T13:19:49;28.30;68.80
2757;DHT22;1386;50.862;6.494;2022-09-03T13:22:28;28.30;69.50
2757;DHT22;1386;50.862;6.494;2022-09-03T13:25:08;28.40;69.50
2757;DHT22;1386;50.862;6.494;2022-09-03T13:27:43;28.50;69.10
2757;DHT22;1386;50.862;6.494;2022-09-03T13:30:13;28.40;69.10
2757;DHT22;1386;50.862;6.494;2022-09-03T13:32:51;28.50;69.00
2757;DHT22;1386;50.862;6.494;2022-09-03T13:35:28;28.60;69.30
2757;DHT22;1386;50.862;6.494;2022-09-03T13:38:04;28.60;69.30
2757;DHT22;1386;50.862;6.494;2022-09-03T13:40:36;28.50;68.90
2757;DHT22;1386;50.862;6.494;2022-09-03T13:43:16;28.20;69.40
2757;DHT22;1386;50.862;6.494;2022-09-03T13:45:51;28.00;69.90
2757;DHT22;1386;50.862;6.494;2022-09-03T13:48:27;27.90;70.20
2757;DHT22;1386;50.862;6.494;2022-09-03T13:51:16;27.70;70.70
2757;DHT22;1386;50.862;6.494;2022-09-03T13:53:55;27.50;70.90
2757;DHT22;1386;50.862;6.494;2022-09-03T13:56:33;27.40;71.20
2757;DHT22;1386;50.862;6.494;2022-09-03T13:59:06;27.30;71.90
2757;DHT22;1386;50.862;6.494;2022-09-03T14:01:54;27.30;71.90
2757;DHT22;1386;50.862;6.494;2022-09-03T14:04:31;27.10;71.80
2757;DHT22;1386;50.862;6.494;2022-09-03T14:07:03;27.20;72.20
2757;DHT22;1386;50.862;6.494;2022-09-03T14:09:50;27.10;72.70
2757;DHT22;1386;50.862;6.494;2022-09-03T14:12:28;27.10;72.70
2757;DHT22;1386;50.862;6.494;2022-09-03T14:15:02;27.10;72.90
2757;DHT22;1386;50.862;6.494;2022-09-03T14:17:37;27.20;72.70
2757;DHT22;1386;50.862;6.494;2022-09-03T14:20:11;27.20;72.90
2757;DHT22;1386;50.862;6.494;2022-09-03T14:22:47;27.10;73.10
2757;DHT22;1386;50.862;6.494;2022-09-03T14:25:18;27.20;73.10
2757;DHT22;1386;50.862;6.494;2022-09-03T14:27:45;27.40;73.10
2757;DHT22;1386;50.862;6.494;2022-09-03T14:30:27;27.50;72.30
2757;DHT22;1386;50.862;6.494;2022-09-03T14:33:00;27.10;73.50
2757;DHT22;1386;50.862;6.494;2022-09-03T14:35:43;26.90;74.80
2757;DHT22;1386;50.862;6.494;2022-09-03T14:38:37;26.90;75.30
2757;DHT22;1386;50.862;6.494;2022-09-03T14:41:33;26.90;74.90
2757;DHT22;1386;50.862;6.494;2022-09-03T14:47:02;26.70;75.70
2757;DHT22;1386;50.862;6.494;2022-09-03T14:52:41;26.50;76.50
2757;DHT22;1386;50.862;6.494;2022-09-03T14:58:22;26.30;76.30
2757;DHT22;1386;50.862;6.494;2022-09-03T15:01:00;26.30;77.00
2757;DHT22;1386;50.862;6.494;2022-09-03T15:03:49;26.30;76.60
2757;DHT22;1386;50.862;6.494;2022-09-03T15:57:49;24.90;86.20
2757;DHT22;1386;50.862;6.494;2022-09-03T16:00:19;24.90;85.50
2757;DHT22;1386;50.862;6.494;2022-09-03T16:02:50;24.80;85.70
2757;DHT22;1386;50.862;6.494;2022-09-03T16:05:22;24.80;85.50
2757;DHT22;1386;50.862;6.494;2022-09-03T16:08:07;24.90;85.80
2757;DHT22;1386;50.862;6.494;2022-09-03T16:10:44;24.90;85.80
2757;DHT22;1386;50.862;6.494;2022-09-03T16:13:35;24.80;85.50
2757;DHT22;1386;50.862;6.494;2022-09-03T16:16:05;24.60;85.80
2757;DHT22;1386;50.862;6.494;2022-09-03T16:18:38;24.60;86.30
2757;DHT22;1386;50.862;6.494;2022-09-03T16:21:10;24.60;86.90
2757;DHT22;1386;50.862;6.494;2022-09-03T16:23:42;24.50;87.50
2757;DHT22;1386;50.862;6.494;2022-09-03T16:26:19;24.40;87.60
2757;DHT22;1386;50.862;6.494;2022-09-03T16:28:52;24.30;87.80
2757;DHT22;1386;50.862;6.494;2022-09-03T16:31:31;24.20;88.70
2757;DHT22;1386;50.862;6.494;2022-09-03T16:34:05;24.20;90.00
2757;DHT22;1386;50.862;6.494;2022-09-03T16:36:41;24.20;90.40
2757;DHT22;1386;50.862;6.494;2022-09-03T16:39:26;24.20;90.70
2757;DHT22;1386;50.862;6.494;2022-09-03T16:42:04;24.10;91.20
2757;DHT22;1386;50.862;6.494;2022-09-03T16:44:43;24.10;91.60
2757;DHT22;1386;50.862;6.494;2022-09-03T16:47:23;24.10;91.80
2757;DHT22;1386;50.862;6.494;2022-09-03T16:50:00;24.10;91.70
2757;DHT22;1386;50.862;6.494;2022-09-03T16:52:39;24.10;91.90
2757;DHT22;1386;50.862;6.494;2022-09-03T16:55:19;24.00;92.30
2757;DHT22;1386;50.862;6.494;2022-09-03T16:58:13;24.00;92.60
2757;DHT22;1386;50.862;6.494;2022-09-03T17:01:12;23.90;93.00
2757;DHT22;1386;50.862;6.494;2022-09-03T17:06:57;23.90;93.30
2757;DHT22;1386;50.862;6.494;2022-09-03T17:09:44;23.90;93.60
2757;DHT22;1386;50.862;6.494;2022-09-03T17:12:24;23.90;93.70
2757;DHT22;1386;50.862;6.494;2022-09-03T17:15:25;23.90;93.60
2757;DHT22;1386;50.862;6.494;2022-09-03T17:18:21;23.90;93.70
2757;DHT22;1386;50.862;6.494;2022-09-03T17:21:08;23.90;93.80
2757;DHT22;1386;50.862;6.494;2022-09-03T17:24:01;23.90;93.70
2757;DHT22;1386;50.862;6.494;2022-09-03T17:26:42;23.80;93.90
2757;DHT22;1386;50.862;6.494;2022-09-03T17:29:40;23.80;94.00
2757;DHT22;1386;50.862;6.494;2022-09-03T17:32:32;23.80;94.20
2757;DHT22;1386;50.862;6.494;2022-09-03T17:39:11;23.70;94.10
2757;DHT22;1386;50.862;6.494;2022-09-03T17:41:49;23.60;94.20
2757;DHT22;1386;50.862;6.494;2022-09-03T17:44:36;23.60;94.40
2757;DHT22;1386;50.862;6.494;2022-09-03T17:47:41;23.60;94.40
2757;DHT22;1386;50.862;6.494;2022-09-03T19:54:10;21.00;99.90
2757;DHT22;1386;50.862;6.494;2022-09-03T19:57:05;20.90;99.90
2757;DHT22;1386;50.862;6.494;2022-09-03T19:59:58;20.80;99.90
2757;DHT22;1386;50.862;6.494;2022-09-03T20:03:12;20.80;99.90
2757;DHT22;1386;50.862;6.494;2022-09-03T20:05:58;20.70;99.90
2757;DHT22;1386;50.862;6.494;2022-09-03T20:08:45;20.60;99.90
2757;DHT22;1386;50.862;6.494;2022-09-03T20:12:15;20.60;99.90
2757;DHT22;1386;50.862;6.494;2022-09-03T21:03:11;19.90;99.90
2757;DHT22;1386;50.862;6.494;2022-09-03T21:05:44;19.90;99.90
2757;DHT22;1386;50.862;6.494;2022-09-03T21:08:22;19.80;99.90
2757;DHT22;1386;50.862;6.494;2022-09-03T21:10:54;19.70;99.90
2757;DHT22;1386;50.862;6.494;2022-09-03T21:13:30;19.70;99.90
2757;DHT22;1386;50.862;6.494;2022-09-03T21:16:08;19.70;99.90
2757;DHT22;1386;50.862;6.494;2022-09-03T21:18:46;19.70;99.90
2757;DHT22;1386;50.862;6.494;2022-09-03T21:21:23;19.50;99.90
2757;DHT22;1386;50.862;6.494;2022-09-03T21:24:02;19.50;99.90
2757;DHT22;1386;50.862;6.494;2022-09-03T21:26:33;19.40;99.90
2757;DHT22;1386;50.862;6.494;2022-09-03T21:29:10;19.40;99.90
2757;DHT22;1386;50.862;6.494;2022-09-03T21:31:48;19.30;99.90
2757;DHT22;1386;50.862;6.494;2022-09-03T21:34:24;19.40;99.90
2757;DHT22;1386;50.862;6.494;2022-09-03T21:36:54;19.30;99.90
2757;DHT22;1386;50.862;6.494;2022-09-03T21:39:26;19.30;99.90
2757;DHT22;1386;50.862;6.494;2022-09-03T21:41:57;19.20;99.90
2757;DHT22;1386;50.862;6.494;2022-09-03T21:47:17;19.10;99.90
2757;DHT22;1386;50.862;6.494;2022-09-03T21:49:55;19.10;99.90
2757;DHT22;1386;50.862;6.494;2022-09-03T21:52:32;19.10;99.90
2757;DHT22;1386;50.862;6.494;2022-09-03T21:55:16;19.00;99.90
2757;DHT22;1386;50.862;6.494;2022-09-03T21:57:51;18.90;99.90
2757;DHT22;1386;50.862;6.494;2022-09-03T22:00:26;18.90;99.90
2757;DHT22;1386;50.862;6.494;2022-09-03T22:02:57;18.80;99.90
2757;DHT22;1386;50.862;6.494;2022-09-03T22:05:35;18.80;99.90
2757;DHT22;1386;50.862;6.494;2022-09-03T22:08:13;18.80;99.90
2757;DHT22;1386;50.862;6.494;2022-09-03T22:10:49;18.70;99.90
2757;DHT22;1386;50.862;6.494;2022-09-03T22:13:22;18.70;99.90
2757;DHT22;1386;50.862;6.494;2022-09-03T22:15:58;18.70;99.90
2757;DHT22;1386;50.862;6.494;2022-09-03T22:18:29;18.70;99.90
2757;DHT22;1386;50.862;6.494;2022-09-03T22:21:09;18.60;99.90
2757;DHT22;1386;50.862;6.494;2022-09-03T22:23:47;18.60;99.90
2757;DHT22;1386;50.862;6.494;2022-09-03T22:26:36;18.60;99.90
2757;DHT22;1386;50.862;6.494;2022-09-03T22:29:13;18.50;99.90
2757;DHT22;1386;50.862;6.494;2022-09-03T22:31:54;18.50;99.90
2757;DHT22;1386;50.862;6.494;2022-09-03T22:34:36;18.50;99.90
2757;DHT22;1386;50.862;6.494;2022-09-03T22:37:11;18.50;99.90
2757;DHT22;1386;50.862;6.494;2022-09-03T22:39:44;18.50;99.90
2757;DHT22;1386;50.862;6.494;2022-09-03T22:42:30;18.40;99.90
2757;DHT22;1386;50.862;6.494;2022-09-03T22:45:17;18.40;99.90
2757;DHT22;1386;50.862;6.494;2022-09-03T22:47:58;18.40;99.90
2757;DHT22;1386;50.862;6.494;2022-09-03T22:50:30;18.40;99.90
2757;DHT22;1386;50.862;6.494;2022-09-03T22:53:08;18.40;99.90
2757;DHT22;1386;50.862;6.494;2022-09-03T22:55:45;18.30;99.90